sensor_id;sensor_type;location;lat;lon;timestamp;temperature;humidity
68248;SHT30;55064;49.636;12.164;2023-03-14T00:00:12;9.31;95.36
68248;SHT30;55064;49.636;12.164;2023-03-14T00:02:38;9.28;95.82
68248;SHT30;55064;49.636;12.164;2023-03-14T00:05:04;9.31;94.77
68248;SHT30;55064;49.636;12.164;2023-03-14T00:07:40;9.31;95.63
68248;SHT30;55064;49.636;12.164;2023-03-14T00:10:12;9.25;95.82
68248;SHT30;55064;49.636;12.164;2023-03-14T00:12:39;9.21;95.91
68248;SHT30;55064;49.636;12.164;2023-03-14T00:15:05;9.15;96.29
68248;SHT30;55064;49.636;12.164;2023-03-14T00:17:32;9.11;96.40
68248;SHT30;55064;49.636;12.164;2023-03-14T00:19:58;9.08;96.26
68248;SHT30;55064;49.636;12.164;2023-03-14T00:22:37;9.10;95.68
68248;SHT30;55064;49.636;12.164;2023-03-14T00:25:04;9.05;95.85
68248;SHT30;55064;49.636;12.164;2023-03-14T00:27:30;9.04;96.37
68248;SHT30;55064;49.636;12.164;2023-03-14T00:29:55;8.96;96.90
68248;SHT30;55064;49.636;12.164;2023-03-14T00:32:21;8.99;96.24
68248;SHT30;55064;49.636;12.164;2023-03-14T00:34:50;9.07;95.75
68248;SHT30;55064;49.636;12.164;2023-03-14T00:37:15;9.07;95.72
68248;SHT30;55064;49.636;12.164;2023-03-14T00:39:40;9.08;95.78
68248;SHT30;55064;49.636;12.164;2023-03-14T00:42:08;9.07;96.19
68248;SHT30;55064;49.636;12.164;2023-03-14T00:44:34;9.01;96.26
68248;SHT30;55064;49.636;12.164;2023-03-14T00:47:00;8.99;96.31
68248;SHT30;55064;49.636;12.164;2023-03-14T00:49:26;8.94;96.23
68248;SHT30;55064;49.636;12.164;2023-03-14T00:51:51;8.96;96.48
68248;SHT30;55064;49.636;12.164;2023-03-14T00:54:20;8.94;96.70
68248;SHT30;55064;49.636;12.164;2023-03-14T00:56:46;8.87;96.65
68248;SHT30;55064;49.636;12.164;2023-03-14T00:59:11;8.79;97.02
68248;SHT30;55064;49.636;12.164;2023-03-14T01:01:38;8.75;97.05
68248;SHT30;55064;49.636;12.164;2023-03-14T01:04:04;8.66;97.52
68248;SHT30;55064;49.636;12.164;2023-03-14T01:06:30;8.72;97.68
68248;SHT30;55064;49.636;12.164;2023-03-14T01:08:56;8.72;97.98
68248;SHT30;55064;49.636;12.164;2023-03-14T01:11:25;8.72;97.99
68248;SHT30;55064;49.636;12.164;2023-03-14T01:13:53;8.73;97.63
68248;SHT30;55064;49.636;12.164;2023-03-14T01:16:20;8.77;97.49
68248;SHT30;55064;49.636;12.164;2023-03-14T01:18:46;8.81;97.22
68248;SHT30;55064;49.636;12.164;2023-03-14T01:21:27;8.84;96.95
68248;SHT30;55064;49.636;12.164;2023-03-14T01:23:54;8.81;96.93
68248;SHT30;55064;49.636;12.164;2023-03-14T01:26:22;8.77;97.52
68248;SHT30;55064;49.636;12.164;2023-03-14T01:28:49;8.79;97.80
68248;SHT30;55064;49.636;12.164;2023-03-14T01:31:16;8.77;97.94
68248;SHT30;55064;49.636;12.164;2023-03-14T01:33:43;8.75;98.42
68248;SHT30;55064;49.636;12.164;2023-03-14T01:36:09;8.69;98.21
68248;SHT30;55064;49.636;12.164;2023-03-14T01:38:36;8.65;98.09
68248;SHT30;55064;49.636;12.164;2023-03-14T01:41:02;8.66;98.24
68248;SHT30;55064;49.636;12.164;2023-03-14T01:43:30;8.76;97.63
68248;SHT30;55064;49.636;12.164;2023-03-14T01:48:48;8.94;96.39
68248;SHT30;55064;49.636;12.164;2023-03-14T01:51:27;8.93;95.96
68248;SHT30;55064;49.636;12.164;2023-03-14T01:54:08;9.01;95.28
68248;SHT30;55064;49.636;12.164;2023-03-14T01:56:35;9.01;95.54
68248;SHT30;55064;49.636;12.164;2023-03-14T01:59:07;9.08;95.08
68248;SHT30;55064;49.636;12.164;2023-03-14T02:01:35;9.04;95.32
68248;SHT30;55064;49.636;12.164;2023-03-14T02:04:03;9.05;95.19
68248;SHT30;55064;49.636;12.164;2023-03-14T02:06:46;9.04;95.19
68248;SHT30;55064;49.636;12.164;2023-03-14T02:09:15;9.03;94.67
68248;SHT30;55064;49.636;12.164;2023-03-14T02:11:41;9.01;95.17
68248;SHT30;55064;49.636;12.164;2023-03-14T02:14:07;9.01;95.12
68248;SHT30;55064;49.636;12.164;2023-03-14T02:16:35;8.96;95.51
68248;SHT30;55064;49.636;12.164;2023-03-14T02:19:01;8.93;95.54
68248;SHT30;55064;49.636;12.164;2023-03-14T02:21:34;8.88;95.93
68248;SHT30;55064;49.636;12.164;2023-03-14T02:24:09;8.84;96.14
68248;SHT30;55064;49.636;12.164;2023-03-14T02:29:36;8.80;96.22
68248;SHT30;55064;49.636;12.164;2023-03-14T02:32:06;8.79;96.55
68248;SHT30;55064;49.636;12.164;2023-03-14T02:34:33;8.72;96.86
68248;SHT30;55064;49.636;12.164;2023-03-14T02:37:00;8.67;96.98
68248;SHT30;55064;49.636;12.164;2023-03-14T02:39:38;8.65;97.08
68248;SHT30;55064;49.636;12.164;2023-03-14T02:42:04;8.62;97.22
68248;SHT30;55064;49.636;12.164;2023-03-14T02:44:30;8.66;96.89
68248;SHT30;55064;49.636;12.164;2023-03-14T02:46:55;8.69;96.98
68248;SHT30;55064;49.636;12.164;2023-03-14T02:49:21;8.73;96.69
68248;SHT30;55064;49.636;12.164;2023-03-14T02:51:47;8.75;96.72
68248;SHT30;55064;49.636;12.164;2023-03-14T02:54:15;8.70;96.78
68248;SHT30;55064;49.636;12.164;2023-03-14T02:56:40;8.70;96.71
68248;SHT30;55064;49.636;12.164;2023-03-14T02:59:06;8.70;96.72
68248;SHT30;55064;49.636;12.164;2023-03-14T03:01:33;8.69;96.73
68248;SHT30;55064;49.636;12.164;2023-03-14T03:03:58;8.69;96.87
68248;SHT30;55064;49.636;12.164;2023-03-14T03:06:23;8.67;96.91
68248;SHT30;55064;49.636;12.164;2023-03-14T03:08:49;8.67;96.74
68248;SHT30;55064;49.636;12.164;2023-03-14T03:11:15;8.69;96.84
68248;SHT30;55064;49.636;12.164;2023-03-14T03:13:42;8.72;96.81
68248;SHT30;55064;49.636;12.164;2023-03-14T03:16:08;8.70;96.86
68248;SHT30;55064;49.636;12.164;2023-03-14T03:18:33;8.77;96.75
68248;SHT30;55064;49.636;12.164;2023-03-14T03:21:03;8.76;96.49
68248;SHT30;55064;49.636;12.164;2023-03-14T03:23:30;8.69;96.78
68248;SHT30;55064;49.636;12.164;2023-03-14T03:25:55;8.66;96.87
68248;SHT30;55064;49.636;12.164;2023-03-14T03:28:23;8.65;97.00
68248;SHT30;55064;49.636;12.164;2023-03-14T03:30:48;8.66;97.08
68248;SHT30;55064;49.636;12.164;2023-03-14T03:33:15;8.58;97.17
68248;SHT30;55064;49.636;12.164;2023-03-14T03:35:49;8.58;97.30
68248;SHT30;55064;49.636;12.164;2023-03-14T03:38:18;8.58;97.29
68248;SHT30;55064;49.636;12.164;2023-03-14T03:40:45;8.55;97.27
68248;SHT30;55064;49.636;12.164;2023-03-14T03:43:12;8.58;97.21
68248;SHT30;55064;49.636;12.164;2023-03-14T03:45:39;8.56;96.89
68248;SHT30;55064;49.636;12.164;2023-03-14T03:48:04;8.58;96.57
68248;SHT30;55064;49.636;12.164;2023-03-14T03:50:29;8.60;96.35
68248;SHT30;55064;49.636;12.164;2023-03-14T03:52:55;8.63;95.97
68248;SHT30;55064;49.636;12.164;2023-03-14T03:55:23;8.63;95.71
68248;SHT30;55064;49.636;12.164;2023-03-14T03:57:48;8.76;94.63
68248;SHT30;55064;49.636;12.164;2023-03-14T04:00:15;8.70;94.72
68248;SHT30;55064;49.636;12.164;2023-03-14T04:02:43;8.70;94.70
68248;SHT30;55064;49.636;12.164;2023-03-14T04:05:08;8.67;94.52
68248;SHT30;55064;49.636;12.164;2023-03-14T04:07:35;8.65;94.82
68248;SHT30;55064;49.636;12.164;2023-03-14T04:10:03;8.62;94.81
68248;SHT30;55064;49.636;12.164;2023-03-14T04:12:29;8.75;93.92
68248;SHT30;55064;49.636;12.164;2023-03-14T04:14:54;8.66;94.33
68248;SHT30;55064;49.636;12.164;2023-03-14T04:17:20;8.65;94.29
68248;SHT30;55064;49.636;12.164;2023-03-14T04:19:45;8.62;94.51
68248;SHT30;55064;49.636;12.164;2023-03-14T04:22:10;8.63;94.52
68248;SHT30;55064;49.636;12.164;2023-03-14T04:24:36;8.52;94.88
68248;SHT30;55064;49.636;12.164;2023-03-14T04:27:03;8.53;94.97
68248;SHT30;55064;49.636;12.164;2023-03-14T04:29:31;8.50;95.24
68248;SHT30;55064;49.636;12.164;2023-03-14T04:31:56;8.48;95.27
68248;SHT30;55064;49.636;12.164;2023-03-14T04:34:23;8.41;95.57
68248;SHT30;55064;49.636;12.164;2023-03-14T04:36:48;8.41;95.48
68248;SHT30;55064;49.636;12.164;2023-03-14T04:39:16;8.37;95.61
68248;SHT30;55064;49.636;12.164;2023-03-14T04:41:41;8.34;95.33
68248;SHT30;55064;49.636;12.164;2023-03-14T04:44:06;8.31;95.46
68248;SHT30;55064;49.636;12.164;2023-03-14T04:46:32;8.31;95.54
68248;SHT30;55064;49.636;12.164;2023-03-14T04:48:57;8.28;95.45
68248;SHT30;55064;49.636;12.164;2023-03-14T04:51:23;8.25;95.36
68248;SHT30;55064;49.636;12.164;2023-03-14T04:53:53;8.27;95.27
68248;SHT30;55064;49.636;12.164;2023-03-14T04:56:19;8.25;95.12
68248;SHT30;55064;49.636;12.164;2023-03-14T04:58:44;8.22;95.00
68248;SHT30;55064;49.636;12.164;2023-03-14T05:01:10;8.20;95.26
68248;SHT30;55064;49.636;12.164;2023-03-14T05:03:36;8.15;95.43
68248;SHT30;55064;49.636;12.164;2023-03-14T05:06:03;8.14;95.58
68248;SHT30;55064;49.636;12.164;2023-03-14T05:08:29;8.10;95.93
68248;SHT30;55064;49.636;12.164;2023-03-14T05:10:55;8.12;95.94
68248;SHT30;55064;49.636;12.164;2023-03-14T05:13:23;8.08;96.15
68248;SHT30;55064;49.636;12.164;2023-03-14T05:15:49;8.04;96.17
68248;SHT30;55064;49.636;12.164;2023-03-14T05:18:16;8.01;96.22
68248;SHT30;55064;49.636;12.164;2023-03-14T05:20:41;8.01;96.30
68248;SHT30;55064;49.636;12.164;2023-03-14T05:23:10;7.97;96.35
68248;SHT30;55064;49.636;12.164;2023-03-14T05:25:36;7.95;96.29
68248;SHT30;55064;49.636;12.164;2023-03-14T05:28:01;8.00;96.07
68248;SHT30;55064;49.636;12.164;2023-03-14T05:30:26;8.03;95.97
68248;SHT30;55064;49.636;12.164;2023-03-14T05:32:53;8.00;96.22
68248;SHT30;55064;49.636;12.164;2023-03-14T05:35:18;7.98;96.32
68248;SHT30;55064;49.636;12.164;2023-03-14T05:37:45;7.95;96.37
68248;SHT30;55064;49.636;12.164;2023-03-14T05:40:13;7.95;96.28
68248;SHT30;55064;49.636;12.164;2023-03-14T05:42:42;7.94;96.43
68248;SHT30;55064;49.636;12.164;2023-03-14T05:45:09;7.91;96.35
68248;SHT30;55064;49.636;12.164;2023-03-14T05:51:00;7.93;96.17
68248;SHT30;55064;49.636;12.164;2023-03-14T05:53:36;7.90;96.21
68248;SHT30;55064;49.636;12.164;2023-03-14T05:56:01;7.97;95.92
68248;SHT30;55064;49.636;12.164;2023-03-14T05:58:37;7.95;95.65
68248;SHT30;55064;49.636;12.164;2023-03-14T06:07:46;7.94;95.75
68248;SHT30;55064;49.636;12.164;2023-03-14T06:13:34;7.93;95.64
68248;SHT30;55064;49.636;12.164;2023-03-14T06:19:49;7.91;95.81
68248;SHT30;55064;49.636;12.164;2023-03-14T06:22:15;7.87;95.96
68248;SHT30;55064;49.636;12.164;2023-03-14T06:24:41;7.89;95.94
68248;SHT30;55064;49.636;12.164;2023-03-14T06:27:08;7.91;96.00
68248;SHT30;55064;49.636;12.164;2023-03-14T06:29:33;7.87;96.02
68248;SHT30;55064;49.636;12.164;2023-03-14T06:31:58;7.90;95.74
68248;SHT30;55064;49.636;12.164;2023-03-14T06:41:37;7.98;95.65
68248;SHT30;55064;49.636;12.164;2023-03-14T06:47:30;8.05;95.29
68248;SHT30;55064;49.636;12.164;2023-03-14T06:49:58;8.04;95.50
68248;SHT30;55064;49.636;12.164;2023-03-14T06:52:25;8.04;95.47
68248;SHT30;55064;49.636;12.164;2023-03-14T06:54:53;8.04;95.55
68248;SHT30;55064;49.636;12.164;2023-03-14T06:57:20;8.05;95.40
68248;SHT30;55064;49.636;12.164;2023-03-14T06:59:46;8.07;95.48
68248;SHT30;55064;49.636;12.164;2023-03-14T07:02:13;8.10;95.47
68248;SHT30;55064;49.636;12.164;2023-03-14T07:04:38;8.11;95.38
68248;SHT30;55064;49.636;12.164;2023-03-14T07:07:04;8.12;95.28
68248;SHT30;55064;49.636;12.164;2023-03-14T07:09:29;8.14;95.31
68248;SHT30;55064;49.636;12.164;2023-03-14T07:11:56;8.15;94.90
68248;SHT30;55064;49.636;12.164;2023-03-14T07:14:24;8.18;95.02
68248;SHT30;55064;49.636;12.164;2023-03-14T07:16:50;8.20;94.92
68248;SHT30;55064;49.636;12.164;2023-03-14T07:19:15;8.21;94.67
68248;SHT30;55064;49.636;12.164;2023-03-14T07:21:40;8.22;94.82
68248;SHT30;55064;49.636;12.164;2023-03-14T07:24:06;8.22;94.80
68248;SHT30;55064;49.636;12.164;2023-03-14T07:26:31;8.25;94.56
68248;SHT30;55064;49.636;12.164;2023-03-14T07:28:59;8.34;94.65
68248;SHT30;55064;49.636;12.164;2023-03-14T07:31:25;8.37;94.35
68248;SHT30;55064;49.636;12.164;2023-03-14T07:33:50;8.41;94.29
68248;SHT30;55064;49.636;12.164;2023-03-14T07:36:16;8.41;94.09
68248;SHT30;55064;49.636;12.164;2023-03-14T07:38:41;8.41;93.89
68248;SHT30;55064;49.636;12.164;2023-03-14T07:41:09;8.48;94.15
68248;SHT30;55064;49.636;12.164;2023-03-14T07:43:35;8.49;93.46
68248;SHT30;55064;49.636;12.164;2023-03-14T07:46:00;8.59;93.60
68248;SHT30;55064;49.636;12.164;2023-03-14T07:48:27;8.62;93.38
68248;SHT30;55064;49.636;12.164;2023-03-14T07:50:53;8.76;93.63
68248;SHT30;55064;49.636;12.164;2023-03-14T07:53:19;8.83;92.69
68248;SHT30;55064;49.636;12.164;2023-03-14T07:55:45;8.90;92.89
68248;SHT30;55064;49.636;12.164;2023-03-14T07:58:12;8.97;92.57
68248;SHT30;55064;49.636;12.164;2023-03-14T08:00:37;8.93;91.98
68248;SHT30;55064;49.636;12.164;2023-03-14T08:03:04;8.90;92.16
68248;SHT30;55064;49.636;12.164;2023-03-14T08:05:29;8.90;92.37
68248;SHT30;55064;49.636;12.164;2023-03-14T08:07:55;8.94;92.16
68248;SHT30;55064;49.636;12.164;2023-03-14T08:10:20;8.93;92.24
68248;SHT30;55064;49.636;12.164;2023-03-14T08:12:47;8.90;92.01
68248;SHT30;55064;49.636;12.164;2023-03-14T08:15:12;8.90;92.56
68248;SHT30;55064;49.636;12.164;2023-03-14T08:17:40;8.87;92.09
68248;SHT30;55064;49.636;12.164;2023-03-14T08:20:08;8.97;92.23
68248;SHT30;55064;49.636;12.164;2023-03-14T08:22:36;8.93;92.16
68248;SHT30;55064;49.636;12.164;2023-03-14T08:25:03;8.93;91.51
68248;SHT30;55064;49.636;12.164;2023-03-14T08:27:28;8.97;91.65
68248;SHT30;55064;49.636;12.164;2023-03-14T08:29:56;9.01;91.59
68248;SHT30;55064;49.636;12.164;2023-03-14T08:32:21;9.00;91.10
68248;SHT30;55064;49.636;12.164;2023-03-14T08:34:50;9.04;90.61
68248;SHT30;55064;49.636;12.164;2023-03-14T08:37:15;9.08;90.18
68248;SHT30;55064;49.636;12.164;2023-03-14T08:39:40;9.11;90.06
68248;SHT30;55064;49.636;12.164;2023-03-14T08:42:06;9.18;89.92
68248;SHT30;55064;49.636;12.164;2023-03-14T08:44:31;9.20;89.95
68248;SHT30;55064;49.636;12.164;2023-03-14T08:46:56;9.18;90.04
68248;SHT30;55064;49.636;12.164;2023-03-14T08:49:24;9.21;89.70
68248;SHT30;55064;49.636;12.164;2023-03-14T08:51:52;9.20;89.95
68248;SHT30;55064;49.636;12.164;2023-03-14T08:54:17;9.21;90.21
68248;SHT30;55064;49.636;12.164;2023-03-14T08:56:46;9.25;89.79
68248;SHT30;55064;49.636;12.164;2023-03-14T08:59:11;9.31;88.88
68248;SHT30;55064;49.636;12.164;2023-03-14T09:01:42;9.39;89.78
68248;SHT30;55064;49.636;12.164;2023-03-14T09:04:07;9.41;89.24
68248;SHT30;55064;49.636;12.164;2023-03-14T09:06:33;9.43;89.27
68248;SHT30;55064;49.636;12.164;2023-03-14T09:08:58;9.41;89.25
68248;SHT30;55064;49.636;12.164;2023-03-14T09:11:23;9.43;88.62
68248;SHT30;55064;49.636;12.164;2023-03-14T09:13:49;9.55;88.60
68248;SHT30;55064;49.636;12.164;2023-03-14T09:16:14;9.59;88.54
68248;SHT30;55064;49.636;12.164;2023-03-14T09:18:40;9.69;88.60
68248;SHT30;55064;49.636;12.164;2023-03-14T09:21:05;9.70;87.61
68248;SHT30;55064;49.636;12.164;2023-03-14T09:23:32;9.70;87.26
68248;SHT30;55064;49.636;12.164;2023-03-14T09:26:00;9.77;87.67
68248;SHT30;55064;49.636;12.164;2023-03-14T09:28:26;9.83;87.30
68248;SHT30;55064;49.636;12.164;2023-03-14T09:30:52;9.87;86.94
68248;SHT30;55064;49.636;12.164;2023-03-14T09:33:17;9.93;86.65
68248;SHT30;55064;49.636;12.164;2023-03-14T09:35:43;10.03;86.94
68248;SHT30;55064;49.636;12.164;2023-03-14T09:38:09;10.06;85.60
68248;SHT30;55064;49.636;12.164;2023-03-14T09:40:38;10.10;85.63
68248;SHT30;55064;49.636;12.164;2023-03-14T09:43:04;10.08;84.96
68248;SHT30;55064;49.636;12.164;2023-03-14T09:45:47;10.11;85.69
68248;SHT30;55064;49.636;12.164;2023-03-14T09:48:21;10.18;85.28
68248;SHT30;55064;49.636;12.164;2023-03-14T09:50:53;10.14;83.84
68248;SHT30;55064;49.636;12.164;2023-03-14T09:53:40;10.17;84.64
68248;SHT30;55064;49.636;12.164;2023-03-14T09:56:19;10.18;84.79
68248;SHT30;55064;49.636;12.164;2023-03-14T09:58:50;10.21;83.38
68248;SHT30;55064;49.636;12.164;2023-03-14T10:01:24;10.27;83.92
68248;SHT30;55064;49.636;12.164;2023-03-14T10:03:52;10.31;82.32
68248;SHT30;55064;49.636;12.164;2023-03-14T10:06:26;10.31;82.32
68248;SHT30;55064;49.636;12.164;2023-03-14T10:08:52;10.63;81.76
68248;SHT30;55064;49.636;12.164;2023-03-14T10:11:19;10.89;82.10
68248;SHT30;55064;49.636;12.164;2023-03-14T10:14:09;11.00;82.23
68248;SHT30;55064;49.636;12.164;2023-03-14T10:16:45;10.93;81.58
68248;SHT30;55064;49.636;12.164;2023-03-14T10:19:14;11.03;80.18
68248;SHT30;55064;49.636;12.164;2023-03-14T10:21:44;11.13;80.83
68248;SHT30;55064;49.636;12.164;2023-03-14T10:24:22;10.90;80.99
68248;SHT30;55064;49.636;12.164;2023-03-14T10:26:59;10.83;81.58
68248;SHT30;55064;49.636;12.164;2023-03-14T10:29:28;10.77;81.48
68248;SHT30;55064;49.636;12.164;2023-03-14T10:31:58;10.80;80.96
68248;SHT30;55064;49.636;12.164;2023-03-14T10:34:29;10.76;80.39
68248;SHT30;55064;49.636;12.164;2023-03-14T10:36:57;10.93;80.46
68248;SHT30;55064;49.636;12.164;2023-03-14T10:39:40;11.00;81.01
68248;SHT30;55064;49.636;12.164;2023-03-14T10:42:26;10.87;79.13
68248;SHT30;55064;49.636;12.164;2023-03-14T10:44:59;10.86;79.15
68248;SHT30;55064;49.636;12.164;2023-03-14T10:47:26;10.86;80.15
68248;SHT30;55064;49.636;12.164;2023-03-14T10:49:53;10.83;80.34
68248;SHT30;55064;49.636;12.164;2023-03-14T10:52:27;10.80;79.28
68248;SHT30;55064;49.636;12.164;2023-03-14T10:55:02;10.90;80.29
68248;SHT30;55064;49.636;12.164;2023-03-14T10:57:28;10.96;80.04
68248;SHT30;55064;49.636;12.164;2023-03-14T10:59:56;11.01;79.03
68248;SHT30;55064;49.636;12.164;2023-03-14T11:02:47;10.99;79.36
68248;SHT30;55064;49.636;12.164;2023-03-14T11:05:40;11.00;78.98
68248;SHT30;55064;49.636;12.164;2023-03-14T11:08:11;11.04;78.34
68248;SHT30;55064;49.636;12.164;2023-03-14T11:10:43;11.06;79.05
68248;SHT30;55064;49.636;12.164;2023-03-14T11:13:25;11.06;77.66
68248;SHT30;55064;49.636;12.164;2023-03-14T11:18:47;11.41;77.16
68248;SHT30;55064;49.636;12.164;2023-03-14T11:31:40;12.00;76.27
68248;SHT30;55064;49.636;12.164;2023-03-14T11:34:29;12.38;76.40
68248;SHT30;55064;49.636;12.164;2023-03-14T11:37:06;12.41;76.16
68248;SHT30;55064;49.636;12.164;2023-03-14T11:39:40;12.13;76.69
68248;SHT30;55064;49.636;12.164;2023-03-14T11:42:13;11.90;75.57
68248;SHT30;55064;49.636;12.164;2023-03-14T11:44:40;11.97;76.25
68248;SHT30;55064;49.636;12.164;2023-03-14T11:49:45;12.14;76.51
68248;SHT30;55064;49.636;12.164;2023-03-14T11:52:37;12.04;77.96
68248;SHT30;55064;49.636;12.164;2023-03-14T11:57:34;11.94;78.85
68248;SHT30;55064;49.636;12.164;2023-03-14T12:02:33;11.99;78.04
68248;SHT30;55064;49.636;12.164;2023-03-14T12:05:20;11.85;77.66
68248;SHT30;55064;49.636;12.164;2023-03-14T12:10:53;11.73;78.39
68248;SHT30;55064;49.636;12.164;2023-03-14T12:13:20;11.69;79.54
68248;SHT30;55064;49.636;12.164;2023-03-14T12:15:59;11.41;79.83
68248;SHT30;55064;49.636;12.164;2023-03-14T12:18:29;11.30;80.85
68248;SHT30;55064;49.636;12.164;2023-03-14T12:21:07;11.16;82.62
68248;SHT30;55064;49.636;12.164;2023-03-14T12:23:42;11.06;83.96
68248;SHT30;55064;49.636;12.164;2023-03-14T12:28:37;10.95;84.48
68248;SHT30;55064;49.636;12.164;2023-03-14T12:37:05;10.63;87.92
68248;SHT30;55064;49.636;12.164;2023-03-14T12:39:40;10.59;87.70
68248;SHT30;55064;49.636;12.164;2023-03-14T12:44:42;10.53;88.62
68248;SHT30;55064;49.636;12.164;2023-03-14T12:49:48;10.77;88.32
68248;SHT30;55064;49.636;12.164;2023-03-14T12:52:20;10.87;88.03
68248;SHT30;55064;49.636;12.164;2023-03-14T12:55:21;10.79;87.15
68248;SHT30;55064;49.636;12.164;2023-03-14T12:58:08;10.93;87.48
68248;SHT30;55064;49.636;12.164;2023-03-14T13:00:41;11.10;87.45
68248;SHT30;55064;49.636;12.164;2023-03-14T13:03:19;11.52;86.02
68248;SHT30;55064;49.636;12.164;2023-03-14T13:06:02;11.89;84.79
68248;SHT30;55064;49.636;12.164;2023-03-14T13:08:50;12.06;81.59
68248;SHT30;55064;49.636;12.164;2023-03-14T13:11:21;12.23;80.75
68248;SHT30;55064;49.636;12.164;2023-03-14T13:13:56;12.14;80.19
68248;SHT30;55064;49.636;12.164;2023-03-14T13:16:22;11.91;80.63
68248;SHT30;55064;49.636;12.164;2023-03-14T13:18:49;11.87;81.59
68248;SHT30;55064;49.636;12.164;2023-03-14T13:21:24;11.58;81.78
68248;SHT30;55064;49.636;12.164;2023-03-14T13:24:21;11.50;82.45
68248;SHT30;55064;49.636;12.164;2023-03-14T13:26:47;11.58;82.94
68248;SHT30;55064;49.636;12.164;2023-03-14T13:29:24;11.62;82.16
68248;SHT30;55064;49.636;12.164;2023-03-14T13:31:52;11.61;82.35
68248;SHT30;55064;49.636;12.164;2023-03-14T13:34:18;11.61;81.63
68248;SHT30;55064;49.636;12.164;2023-03-14T13:36:44;11.62;81.55
68248;SHT30;55064;49.636;12.164;2023-03-14T13:39:20;11.78;81.55
68248;SHT30;55064;49.636;12.164;2023-03-14T13:41:49;11.79;78.54
68248;SHT30;55064;49.636;12.164;2023-03-14T13:44:27;11.83;79.95
68248;SHT30;55064;49.636;12.164;2023-03-14T13:47:02;11.82;78.50
68248;SHT30;55064;49.636;12.164;2023-03-14T13:49:31;11.79;79.08
68248;SHT30;55064;49.636;12.164;2023-03-14T13:51:59;11.90;76.80
68248;SHT30;55064;49.636;12.164;2023-03-14T13:54:25;12.41;77.85
68248;SHT30;55064;49.636;12.164;2023-03-14T13:57:02;12.58;74.86
68248;SHT30;55064;49.636;12.164;2023-03-14T13:59:30;12.51;75.42
68248;SHT30;55064;49.636;12.164;2023-03-14T14:02:00;12.64;75.66
68248;SHT30;55064;49.636;12.164;2023-03-14T14:04:26;12.59;74.68
68248;SHT30;55064;49.636;12.164;2023-03-14T14:07:07;12.48;75.90
68248;SHT30;55064;49.636;12.164;2023-03-14T14:09:43;12.34;76.19
68248;SHT30;55064;49.636;12.164;2023-03-14T14:12:23;12.03;76.74
68248;SHT30;55064;49.636;12.164;2023-03-14T14:17:34;11.61;78.95
68248;SHT30;55064;49.636;12.164;2023-03-14T14:20:04;11.51;80.45
68248;SHT30;55064;49.636;12.164;2023-03-14T14:22:32;11.27;82.06
68248;SHT30;55064;49.636;12.164;2023-03-14T14:24:57;11.14;86.16
68248;SHT30;55064;49.636;12.164;2023-03-14T14:27:28;10.28;89.38
68248;SHT30;55064;49.636;12.164;2023-03-14T14:30:01;9.68;89.33
68248;SHT30;55064;49.636;12.164;2023-03-14T14:32:34;9.43;90.12
68248;SHT30;55064;49.636;12.164;2023-03-14T14:35:00;9.28;90.22
68248;SHT30;55064;49.636;12.164;2023-03-14T14:37:28;9.24;90.25
68248;SHT30;55064;49.636;12.164;2023-03-14T14:39:56;9.25;90.53
68248;SHT30;55064;49.636;12.164;2023-03-14T14:42:30;9.27;90.53
68248;SHT30;55064;49.636;12.164;2023-03-14T14:44:57;9.27;90.54
68248;SHT30;55064;49.636;12.164;2023-03-14T14:47:26;9.25;90.21
68248;SHT30;55064;49.636;12.164;2023-03-14T14:49:54;9.22;89.81
68248;SHT30;55064;49.636;12.164;2023-03-14T14:52:27;9.17;90.76
68248;SHT30;55064;49.636;12.164;2023-03-14T14:54:59;9.17;91.10
68248;SHT30;55064;49.636;12.164;2023-03-14T14:57:28;9.11;91.55
68248;SHT30;55064;49.636;12.164;2023-03-14T15:00:26;9.08;91.82
68248;SHT30;55064;49.636;12.164;2023-03-14T15:02:53;9.08;92.38
68248;SHT30;55064;49.636;12.164;2023-03-14T15:05:22;8.96;93.07
68248;SHT30;55064;49.636;12.164;2023-03-14T15:07:48;8.90;93.51
68248;SHT30;55064;49.636;12.164;2023-03-14T15:10:20;8.80;93.80
68248;SHT30;55064;49.636;12.164;2023-03-14T15:12:46;8.87;94.32
68248;SHT30;55064;49.636;12.164;2023-03-14T15:15:14;8.83;94.59
68248;SHT30;55064;49.636;12.164;2023-03-14T15:17:40;8.80;95.01
68248;SHT30;55064;49.636;12.164;2023-03-14T15:20:11;8.72;95.59
68248;SHT30;55064;49.636;12.164;2023-03-14T15:22:39;8.75;95.58
68248;SHT30;55064;49.636;12.164;2023-03-14T15:25:05;8.76;95.14
68248;SHT30;55064;49.636;12.164;2023-03-14T15:27:31;8.75;94.08
68248;SHT30;55064;49.636;12.164;2023-03-14T15:29:58;8.70;94.36
68248;SHT30;55064;49.636;12.164;2023-03-14T15:32:27;8.75;94.87
68248;SHT30;55064;49.636;12.164;2023-03-14T15:34:54;8.72;93.55
68248;SHT30;55064;49.636;12.164;2023-03-14T15:37:20;8.62;92.16
68248;SHT30;55064;49.636;12.164;2023-03-14T15:39:48;8.46;91.36
68248;SHT30;55064;49.636;12.164;2023-03-14T15:42:16;8.37;90.34
68248;SHT30;55064;49.636;12.164;2023-03-14T15:44:42;8.34;90.72
68248;SHT30;55064;49.636;12.164;2023-03-14T15:47:09;8.22;90.06
68248;SHT30;55064;49.636;12.164;2023-03-14T15:49:35;8.18;89.52
68248;SHT30;55064;49.636;12.164;2023-03-14T15:52:00;8.18;90.18
68248;SHT30;55064;49.636;12.164;2023-03-14T15:54:27;8.10;89.19
68248;SHT30;55064;49.636;12.164;2023-03-14T15:56:56;8.03;89.73
68248;SHT30;55064;49.636;12.164;2023-03-14T15:59:23;7.93;89.81
68248;SHT30;55064;49.636;12.164;2023-03-14T16:01:49;7.82;87.83
68248;SHT30;55064;49.636;12.164;2023-03-14T16:04:14;7.74;88.51
68248;SHT30;55064;49.636;12.164;2023-03-14T16:06:41;7.70;88.23
68248;SHT30;55064;49.636;12.164;2023-03-14T16:09:08;7.65;88.85
68248;SHT30;55064;49.636;12.164;2023-03-14T16:11:36;7.61;88.90
68248;SHT30;55064;49.636;12.164;2023-03-14T16:14:02;7.61;88.76
68248;SHT30;55064;49.636;12.164;2023-03-14T16:16:27;7.56;88.70
68248;SHT30;55064;49.636;12.164;2023-03-14T16:18:52;7.59;88.90
68248;SHT30;55064;49.636;12.164;2023-03-14T16:21:19;7.58;87.84
68248;SHT30;55064;49.636;12.164;2023-03-14T16:23:47;7.58;88.24
68248;SHT30;55064;49.636;12.164;2023-03-14T16:26:18;7.56;88.47
68248;SHT30;55064;49.636;12.164;2023-03-14T16:28:44;7.58;87.91
68248;SHT30;55064;49.636;12.164;2023-03-14T16:31:13;7.55;88.09
68248;SHT30;55064;49.636;12.164;2023-03-14T16:33:41;7.56;88.50
68248;SHT30;55064;49.636;12.164;2023-03-14T16:36:10;7.56;88.84
68248;SHT30;55064;49.636;12.164;2023-03-14T16:38:40;7.49;89.52
68248;SHT30;55064;49.636;12.164;2023-03-14T16:41:17;7.42;90.07
68248;SHT30;55064;49.636;12.164;2023-03-14T16:43:45;7.38;90.26
68248;SHT30;55064;49.636;12.164;2023-03-14T16:46:15;7.36;89.93
68248;SHT30;55064;49.636;12.164;2023-03-14T16:48:41;7.34;89.95
68248;SHT30;55064;49.636;12.164;2023-03-14T16:51:06;7.28;89.36